createdAt,value
2023-02-24T00:02:04.690Z,-13.85
2023-02-24T00:04:14.888Z,-13.85
2023-02-24T00:06:17.663Z,-13.83
2023-02-24T00:08:20.188Z,-13.82
2023-02-24T00:10:22.950Z,-13.81
2023-02-24T00:12:25.459Z,-13.90
2023-02-24T00:14:33.595Z,-13.82
2023-02-24T00:16:37.985Z,-13.78
2023-02-24T00:18:40.979Z,-13.82
2023-02-24T00:20:43.585Z,-13.74
2023-02-24T00:22:46.249Z,-13.71
2023-02-24T00:24:49.177Z,-13.75
2023-02-24T00:27:00.311Z,-13.69
2023-02-24T00:29:06.182Z,-13.71
2023-02-24T00:31:14.359Z,-13.74
2023-02-24T00:33:17.157Z,-13.75
2023-02-24T00:35:19.750Z,-13.75
2023-02-24T00:37:24.165Z,-13.75
2023-02-24T00:39:33.641Z,-13.74
2023-02-24T00:41:41.773Z,-13.74
2023-02-24T00:43:49.052Z,-13.79
2023-02-24T00:45:52.011Z,-13.79
2023-02-24T00:47:57.641Z,-13.86
2023-02-24T00:50:00.182Z,-13.87
2023-02-24T00:52:06.770Z,-13.88
2023-02-24T00:54:15.013Z,-13.92
2023-02-24T00:56:17.882Z,-13.93
2023-02-24T00:58:20.657Z,-13.92
2023-02-24T01:00:23.623Z,-13.94
2023-02-24T01:02:26.922Z,-14.02
2023-02-24T01:04:29.985Z,-13.96
2023-02-24T01:06:34.402Z,-13.99
2023-02-24T01:08:40.342Z,-14.03
2023-02-24T01:11:02.828Z,-14.05
2023-02-24T01:13:05.336Z,-14.10
2023-02-24T01:15:09.327Z,-14.13
2023-02-24T01:17:11.976Z,-14.17
2023-02-24T01:19:14.472Z,-14.26
2023-02-24T01:21:20.164Z,-14.23
2023-02-24T01:23:24.407Z,-14.23
2023-02-24T01:25:27.981Z,-14.26
2023-02-24T01:27:31.689Z,-14.26
2023-02-24T01:29:39.497Z,-14.27
2023-02-24T01:31:43.843Z,-14.24
2023-02-24T01:33:50.431Z,-14.24
2023-02-24T01:35:55.537Z,-14.27
2023-02-24T01:37:59.317Z,-14.26
2023-02-24T01:40:10.472Z,-14.27
2023-02-24T01:42:22.088Z,-14.24
2023-02-24T01:44:25.274Z,-14.22
2023-02-24T01:46:35.754Z,-14.21
2023-02-24T01:48:38.478Z,-14.21
2023-02-24T01:50:40.929Z,-14.29
2023-02-24T01:52:46.824Z,-14.31
2023-02-24T01:54:55.327Z,-14.35
2023-02-24T01:56:58.835Z,-14.38
2023-02-24T01:59:03.670Z,-14.42
2023-02-24T02:01:09.568Z,-14.44
2023-02-24T02:03:24.367Z,-14.47
2023-02-24T02:05:27.054Z,-14.46
2023-02-24T02:07:30.510Z,-14.47
2023-02-24T02:09:34.339Z,-14.40
2023-02-24T02:11:37.129Z,-14.38
2023-02-24T02:13:45.049Z,-14.40
2023-02-24T02:16:11.418Z,-14.42
2023-02-24T02:18:41.246Z,-14.39
2023-02-24T02:21:06.223Z,-14.44
2023-02-24T02:23:33.673Z,-14.47
2023-02-24T02:26:13.414Z,-14.48
2023-02-24T02:28:45.655Z,-14.51
2023-02-24T02:30:57.285Z,-14.54
2023-02-24T02:33:21.756Z,-14.58
2023-02-24T02:35:40.569Z,-14.62
2023-02-24T02:37:51.710Z,-14.62
2023-02-24T02:40:01.435Z,-14.64
2023-02-24T02:42:14.477Z,-14.67
2023-02-24T02:44:33.128Z,-14.71
2023-02-24T02:46:41.425Z,-14.68
2023-02-24T02:48:47.829Z,-14.64
2023-02-24T02:50:55.400Z,-14.65
2023-02-24T02:53:13.882Z,-14.77
2023-02-24T02:55:40.545Z,-14.79
2023-02-24T02:57:49.272Z,-14.81
2023-02-24T03:00:10.557Z,-14.86
2023-02-24T03:02:13.408Z,-14.86
2023-02-24T03:04:19.293Z,-14.88
2023-02-24T03:06:38.966Z,-14.88
2023-02-24T03:08:50.231Z,-14.88
2023-02-24T03:10:54.380Z,-14.89
2023-02-24T03:13:00.518Z,-14.87
2023-02-24T03:15:07.800Z,-14.88
2023-02-24T03:17:17.135Z,-14.85
2023-02-24T03:19:32.247Z,-14.92
2023-02-24T03:22:15.553Z,-14.95
2023-02-24T03:24:18.427Z,-14.96
2023-02-24T03:26:41.602Z,-14.98
2023-02-24T03:29:11.123Z,-15.05
2023-02-24T03:31:23.599Z,-15.05
2023-02-24T03:33:37.178Z,-15.01
2023-02-24T03:35:42.419Z,-14.99
2023-02-24T03:37:47.513Z,-14.99
2023-02-24T03:39:53.276Z,-15.02
2023-02-24T03:42:04.408Z,-15.01
2023-02-24T03:44:11.262Z,-15.04
2023-02-24T03:46:19.798Z,-15.00
2023-02-24T03:48:22.970Z,-15.02
2023-02-24T03:50:31.847Z,-15.04
2023-02-24T03:53:09.484Z,-15.07
2023-02-24T03:55:26.859Z,-15.11
2023-02-24T03:57:59.880Z,-15.10
2023-02-24T04:00:22.945Z,-15.18
2023-02-24T04:02:31.250Z,-15.23
2023-02-24T04:04:52.988Z,-15.19
2023-02-24T04:07:00.944Z,-15.20
2023-02-24T04:09:23.728Z,-15.14
2023-02-24T04:11:41.385Z,-15.13
2023-02-24T04:13:51.520Z,-15.11
2023-02-24T04:16:04.887Z,-15.06
2023-02-24T04:18:17.729Z,-14.99
2023-02-24T04:20:25.094Z,-14.96
2023-02-24T04:22:29.346Z,-14.94
2023-02-24T04:24:34.391Z,-14.95
2023-02-24T04:26:40.697Z,-14.89
2023-02-24T04:28:44.221Z,-14.89
2023-02-24T04:30:50.978Z,-14.89
2023-02-24T04:32:54.292Z,-14.87
2023-02-24T04:35:09.527Z,-14.83
2023-02-24T04:37:12.091Z,-14.88
2023-02-24T04:39:16.533Z,-14.92
2023-02-24T04:41:21.833Z,-14.92
2023-02-24T04:43:24.597Z,-14.96
2023-02-24T04:45:30.212Z,-14.94
2023-02-24T04:47:32.749Z,-14.96
2023-02-24T04:49:35.233Z,-14.93
2023-02-24T04:51:42.498Z,-14.92
2023-02-24T04:53:45.004Z,-14.95
2023-02-24T04:55:51.163Z,-14.94
2023-02-24T04:57:54.255Z,-14.87
2023-02-24T04:59:57.858Z,-14.85
2023-02-24T05:02:03.478Z,-14.80
2023-02-24T05:04:08.538Z,-14.80
2023-02-24T05:06:16.580Z,-14.75
2023-02-24T05:08:20.013Z,-14.72
2023-02-24T05:10:28.178Z,-14.68
2023-02-24T05:12:32.113Z,-14.66
2023-02-24T05:14:34.668Z,-14.62
2023-02-24T05:16:37.875Z,-14.56
2023-02-24T05:18:41.005Z,-14.55
2023-02-24T05:21:05.177Z,-14.50
2023-02-24T05:23:10.121Z,-14.49
2023-02-24T05:25:14.533Z,-14.48
2023-02-24T05:27:17.606Z,-14.47
2023-02-24T05:29:20.478Z,-14.43
2023-02-24T05:31:29.081Z,-14.41
2023-02-24T05:33:32.311Z,-14.30
2023-02-24T05:35:37.134Z,-14.29
2023-02-24T05:37:42.124Z,-14.23
2023-02-24T05:39:44.703Z,-14.22
2023-02-24T05:41:49.057Z,-14.19
2023-02-24T05:43:55.838Z,-14.11
2023-02-24T05:46:04.358Z,-14.12
2023-02-24T05:48:06.825Z,-14.15
2023-02-24T05:50:10.358Z,-14.15
2023-02-24T05:52:14.500Z,-14.00
2023-02-24T05:54:17.592Z,-14.00
2023-02-24T05:56:20.206Z,-13.91
2023-02-24T05:58:24.640Z,-13.92
2023-02-24T06:00:27.229Z,-13.84
2023-02-24T06:02:37.420Z,-13.81
2023-02-24T06:04:54.041Z,-13.79
2023-02-24T06:06:56.765Z,-13.82
2023-02-24T06:09:02.005Z,-13.76
2023-02-24T06:11:05.431Z,-13.69
2023-02-24T06:13:08.114Z,-13.66
2023-02-24T06:15:11.257Z,-13.62
2023-02-24T06:17:20.886Z,-13.57
2023-02-24T06:19:25.547Z,-13.49
2023-02-24T06:21:31.083Z,-13.36
2023-02-24T06:23:34.040Z,-13.30
2023-02-24T06:25:38.802Z,-13.25
2023-02-24T06:27:43.240Z,-13.24
2023-02-24T06:29:50.164Z,-13.19
2023-02-24T06:31:54.820Z,-13.14
2023-02-24T06:33:57.420Z,-13.06
2023-02-24T06:36:00.836Z,-13.02
2023-02-24T06:38:04.594Z,-13.03
2023-02-24T06:40:26.695Z,-12.92
2023-02-24T06:42:29.514Z,-12.82
2023-02-24T06:44:33.994Z,-12.77
2023-02-24T06:46:37.260Z,-12.76
2023-02-24T06:48:40.096Z,-12.65
2023-02-24T06:50:43.306Z,-12.57
2023-02-24T06:52:47.733Z,-12.54
2023-02-24T06:54:52.529Z,-12.49
2023-02-24T06:56:56.330Z,-12.30
2023-02-24T06:58:59.379Z,-12.11
2023-02-24T07:01:04.780Z,-11.92
2023-02-24T07:03:15.515Z,-11.82
2023-02-24T07:05:19.092Z,-11.73
2023-02-24T07:07:22.760Z,-11.57
2023-02-24T07:09:26.868Z,-11.45
2023-02-24T07:11:29.608Z,-11.42
2023-02-24T07:13:33.197Z,-11.29
2023-02-24T07:15:38.531Z,-11.25
2023-02-24T07:17:41.129Z,-11.33
2023-02-24T07:19:44.254Z,-11.23
2023-02-24T07:21:50.202Z,-11.12
2023-02-24T07:23:59.260Z,-11.03
2023-02-24T07:26:12.071Z,-10.95
2023-02-24T07:28:14.776Z,-10.92
2023-02-24T07:30:17.929Z,-10.96
2023-02-24T07:32:22.619Z,-10.82
2023-02-24T07:34:25.793Z,-10.66
2023-02-24T07:36:30.533Z,-10.58
2023-02-24T07:38:33.193Z,-10.55
2023-02-24T07:40:37.292Z,-10.37
2023-02-24T07:42:39.804Z,-10.22
2023-02-24T07:44:44.675Z,-10.17
2023-02-24T07:46:49.237Z,-10.10
2023-02-24T07:48:52.909Z,-10.24
2023-02-24T07:50:55.350Z,-10.15
2023-02-24T07:52:58.185Z,-10.09
2023-02-24T07:55:00.703Z,-10.01
2023-02-24T07:57:03.478Z,-9.92
2023-02-24T07:59:10.000Z,-9.84
2023-02-24T08:01:23.476Z,-9.81
2023-02-24T08:03:30.271Z,-9.72
2023-02-24T08:05:34.457Z,-9.66
2023-02-24T08:07:38.257Z,-9.63
2023-02-24T08:09:43.861Z,-9.53
2023-02-24T08:11:56.311Z,-9.53
2023-02-24T08:13:59.340Z,-9.51
2023-02-24T08:16:04.870Z,-9.43
2023-02-24T08:18:07.632Z,-9.37
2023-02-24T08:20:13.574Z,-9.26
2023-02-24T08:22:20.542Z,-9.14
2023-02-24T08:24:25.467Z,-9.17
2023-02-24T08:26:31.821Z,-9.11
2023-02-24T08:28:34.594Z,-9.15
2023-02-24T08:30:47.916Z,-9.16
2023-02-24T08:33:00.151Z,-9.16
2023-02-24T08:35:15.093Z,-9.08
2023-02-24T08:37:17.573Z,-9.05
2023-02-24T08:39:22.630Z,-9.03
2023-02-24T08:41:45.006Z,-8.92
2023-02-24T08:43:48.607Z,-8.90
2023-02-24T08:45:56.683Z,-8.87
2023-02-24T08:48:00.713Z,-8.84
2023-02-24T08:50:07.242Z,-8.87
2023-02-24T08:52:09.891Z,-8.89
2023-02-24T08:54:18.133Z,-8.91
2023-02-24T08:56:26.047Z,-8.83
2023-02-24T08:58:28.693Z,-8.74
2023-02-24T09:00:49.396Z,-8.56
2023-02-24T09:02:56.300Z,-8.63
2023-02-24T09:05:07.653Z,-8.54
2023-02-24T09:07:15.557Z,-8.54
2023-02-24T09:09:23.200Z,-8.48
2023-02-24T09:11:26.014Z,-8.41
2023-02-24T09:13:33.272Z,-8.30
2023-02-24T09:15:41.633Z,-8.24
2023-02-24T09:17:45.339Z,-8.20
2023-02-24T09:19:51.818Z,-8.15
2023-02-24T09:22:21.239Z,-8.09
2023-02-24T09:24:27.245Z,-8.12
2023-02-24T09:26:33.231Z,-8.17
2023-02-24T09:28:48.675Z,-8.09
2023-02-24T09:30:57.056Z,-8.13
2023-02-24T09:33:02.511Z,-7.99
2023-02-24T09:35:05.309Z,-7.79
2023-02-24T09:37:25.100Z,-7.61
2023-02-24T09:39:27.997Z,-7.51
2023-02-24T09:41:54.785Z,-7.57
2023-02-24T09:44:18.783Z,-7.60
2023-02-24T09:46:21.592Z,-7.58
2023-02-24T09:48:43.973Z,-7.56
2023-02-24T09:51:04.329Z,-7.50
2023-02-24T09:53:17.593Z,-7.57
2023-02-24T09:55:36.171Z,-7.38
2023-02-24T09:58:10.263Z,-7.28
2023-02-24T10:00:25.014Z,-7.28
2023-02-24T10:02:46.314Z,-7.41
2023-02-24T10:05:07.531Z,-7.35
2023-02-24T10:07:18.668Z,-7.38
2023-02-24T10:09:47.082Z,-7.35
2023-02-24T10:12:04.624Z,-7.31
2023-02-24T10:14:19.606Z,-7.25
2023-02-24T10:16:24.307Z,-7.27
2023-02-24T10:18:28.740Z,-7.24
2023-02-24T10:20:40.588Z,-7.26
2023-02-24T10:22:50.941Z,-7.10
2023-02-24T10:25:21.091Z,-7.18
2023-02-24T10:27:33.778Z,-7.04
2023-02-24T10:30:01.214Z,-6.96
2023-02-24T10:32:35.935Z,-6.92
2023-02-24T10:34:38.882Z,-6.85
2023-02-24T10:36:43.826Z,-6.79
2023-02-24T10:38:46.833Z,-6.68
2023-02-24T10:40:57.765Z,-6.62
2023-02-24T10:43:10.842Z,-6.64
2023-02-24T10:45:37.794Z,-6.60
2023-02-24T10:47:44.566Z,-6.53
2023-02-24T10:49:59.154Z,-6.56
2023-02-24T10:52:09.185Z,-6.57
2023-02-24T10:54:42.466Z,-6.48
2023-02-24T10:56:55.419Z,-6.48
2023-02-24T10:59:20.985Z,-6.42
2023-02-24T11:01:49.684Z,-6.49
2023-02-24T11:04:22.751Z,-6.35
2023-02-24T11:06:42.448Z,-6.28
2023-02-24T11:08:47.962Z,-6.21
2023-02-24T11:10:59.098Z,-6.15
2023-02-24T11:13:20.346Z,-6.12
2023-02-24T11:15:48.937Z,-6.09
2023-02-24T11:17:57.504Z,-6.11
2023-02-24T11:20:26.155Z,-6.10
2023-02-24T11:22:37.709Z,-6.07
2023-02-24T11:24:40.546Z,-6.10
2023-02-24T11:26:43.185Z,-6.10
2023-02-24T11:29:13.310Z,-6.15
2023-02-24T11:31:31.094Z,-6.22
2023-02-24T11:33:49.493Z,-6.25
2023-02-24T11:36:16.704Z,-6.28
2023-02-24T11:38:38.699Z,-6.30
2023-02-24T11:40:48.460Z,-6.34
2023-02-24T11:42:59.444Z,-6.39
2023-02-24T11:45:09.613Z,-6.46
2023-02-24T11:47:20.761Z,-6.47
2023-02-24T11:49:44.282Z,-6.39
2023-02-24T11:51:46.939Z,-6.36
2023-02-24T11:54:12.261Z,-6.40
2023-02-24T11:56:17.455Z,-6.45
2023-02-24T11:58:45.695Z,-6.48
2023-02-24T12:00:57.879Z,-6.49
2023-02-24T12:03:05.896Z,-6.62
2023-02-24T12:05:18.891Z,-6.80
2023-02-24T12:07:29.558Z,-7.02
2023-02-24T12:09:38.383Z,-7.04
2023-02-24T12:11:52.436Z,-7.10
2023-02-24T12:14:19.033Z,-7.21
2023-02-24T12:16:25.870Z,-7.18
2023-02-24T12:18:52.522Z,-7.15
2023-02-24T12:21:00.890Z,-7.10
2023-02-24T12:23:16.024Z,-7.06
2023-02-24T12:25:23.147Z,-7.04
2023-02-24T12:27:59.047Z,-7.05
2023-02-24T12:30:38.791Z,-7.21
2023-02-24T12:33:01.902Z,-7.18
2023-02-24T12:35:10.353Z,-7.24
2023-02-24T12:37:46.438Z,-7.31
2023-02-24T12:40:18.347Z,-7.38
2023-02-24T12:42:31.717Z,-7.46
2023-02-24T12:45:13.266Z,-7.52
2023-02-24T12:47:40.633Z,-7.58
2023-02-24T12:50:02.059Z,-7.66
2023-02-24T12:52:18.167Z,-7.78
2023-02-24T12:54:29.527Z,-7.88
2023-02-24T12:56:47.189Z,-8.08
2023-02-24T12:58:52.293Z,-8.10
2023-02-24T13:00:54.853Z,-8.20
2023-02-24T13:03:06.008Z,-8.16
2023-02-24T13:05:29.789Z,-8.27
2023-02-24T13:08:11.204Z,-8.39
2023-02-24T13:10:38.721Z,-8.35
2023-02-24T13:12:54.162Z,-8.34
2023-02-24T13:14:57.316Z,-8.27
2023-02-24T13:17:13.074Z,-8.33
2023-02-24T13:19:20.877Z,-8.32
2023-02-24T13:21:24.940Z,-8.24
2023-02-24T13:23:27.683Z,-8.23
2023-02-24T13:25:37.691Z,-8.31
2023-02-24T13:27:46.609Z,-8.42
2023-02-24T13:29:57.395Z,-8.45
2023-02-24T13:32:00.294Z,-8.38
2023-02-24T13:34:15.990Z,-8.34
2023-02-24T13:36:24.345Z,-8.33
2023-02-24T13:38:37.089Z,-8.33
2023-02-24T13:40:39.647Z,-8.32
2023-02-24T13:42:43.613Z,-8.34
2023-02-24T13:45:03.191Z,-8.37
2023-02-24T13:47:16.947Z,-8.40
2023-02-24T13:49:54.393Z,-8.45
2023-02-24T13:52:04.137Z,-8.55
2023-02-24T13:54:09.770Z,-8.62
2023-02-24T13:56:29.783Z,-8.63
2023-02-24T13:58:50.473Z,-8.72
2023-02-24T14:00:53.064Z,-8.66
2023-02-24T14:02:56.380Z,-8.67
2023-02-24T14:05:03.488Z,-8.69
2023-02-24T14:07:11.925Z,-8.82
2023-02-24T14:09:18.868Z,-8.84
2023-02-24T14:11:26.980Z,-8.82
2023-02-24T14:13:34.298Z,-8.87
2023-02-24T14:15:41.652Z,-8.85
2023-02-24T14:17:44.305Z,-8.93
2023-02-24T14:19:46.795Z,-8.94
2023-02-24T14:21:56.240Z,-8.98
2023-02-24T14:24:00.169Z,-8.97
2023-02-24T14:26:08.901Z,-9.00
2023-02-24T14:28:21.787Z,-9.05
2023-02-24T14:30:29.293Z,-9.16
2023-02-24T14:32:34.211Z,-9.19
2023-02-24T14:34:37.012Z,-9.24
2023-02-24T14:36:43.950Z,-9.34
2023-02-24T14:38:46.564Z,-9.39
2023-02-24T14:40:49.109Z,-9.41
2023-02-24T14:42:54.831Z,-9.34
2023-02-24T14:44:59.256Z,-9.29
2023-02-24T14:47:07.821Z,-9.26
2023-02-24T14:49:18.817Z,-9.24
2023-02-24T14:51:26.410Z,-9.27
2023-02-24T14:53:30.960Z,-9.34
2023-02-24T14:55:37.821Z,-9.39
2023-02-24T14:57:50.924Z,-9.39
2023-02-24T15:00:07.340Z,-9.41
2023-02-24T15:02:19.812Z,-9.41
2023-02-24T15:04:31.056Z,-9.45
2023-02-24T15:06:40.881Z,-9.50
2023-02-24T15:08:48.747Z,-9.42
2023-02-24T15:10:51.416Z,-9.41
2023-02-24T15:13:01.626Z,-9.37
2023-02-24T15:15:19.308Z,-9.40
2023-02-24T15:17:22.633Z,-9.48
2023-02-24T15:19:32.154Z,-9.46
2023-02-24T15:21:41.151Z,-9.42
2023-02-24T15:23:44.726Z,-9.45
2023-02-24T15:25:47.367Z,-9.45
2023-02-24T15:28:02.064Z,-9.41
2023-02-24T15:30:25.068Z,-9.48
2023-02-24T15:32:29.758Z,-9.48
2023-02-24T15:34:35.919Z,-9.48
2023-02-24T15:36:38.623Z,-9.50
2023-02-24T15:38:42.857Z,-9.52
2023-02-24T15:40:59.409Z,-9.55
2023-02-24T15:43:10.150Z,-9.59
2023-02-24T15:45:42.733Z,-9.61
2023-02-24T15:47:46.311Z,-9.69
2023-02-24T15:49:49.010Z,-9.63
2023-02-24T15:51:54.902Z,-9.70
2023-02-24T15:54:00.215Z,-9.66
2023-02-24T15:56:03.670Z,-9.61
2023-02-24T15:58:06.279Z,-9.63
2023-02-24T16:00:14.872Z,-9.62
2023-02-24T16:02:20.028Z,-9.58
2023-02-24T16:04:24.225Z,-9.55
2023-02-24T16:06:28.954Z,-9.53
2023-02-24T16:08:32.088Z,-9.50
2023-02-24T16:10:34.693Z,-9.45
2023-02-24T16:12:44.162Z,-9.37
2023-02-24T16:14:50.238Z,-9.30
2023-02-24T16:16:53.244Z,-9.26
2023-02-24T16:18:56.886Z,-9.19
2023-02-24T16:20:59.462Z,-9.17
2023-02-24T16:23:05.007Z,-9.13
2023-02-24T16:25:08.547Z,-9.06
2023-02-24T16:27:17.521Z,-9.00
2023-02-24T16:29:20.104Z,-8.99
2023-02-24T16:31:26.704Z,-9.01
2023-02-24T16:33:29.547Z,-8.97
2023-02-24T16:35:32.266Z,-8.96
2023-02-24T16:37:34.780Z,-8.94
2023-02-24T16:39:37.345Z,-8.89
2023-02-24T16:41:39.926Z,-8.91
2023-02-24T16:43:42.474Z,-8.89
2023-02-24T16:45:46.051Z,-8.89
2023-02-24T16:47:49.794Z,-8.94
2023-02-24T16:49:55.468Z,-8.91
2023-02-24T16:51:58.050Z,-8.85
2023-02-24T16:54:00.523Z,-8.88
2023-02-24T16:56:04.966Z,-8.85
2023-02-24T16:58:07.461Z,-8.82
2023-02-24T17:00:13.016Z,-8.85
2023-02-24T17:02:25.890Z,-8.89
2023-02-24T17:04:28.640Z,-8.85
2023-02-24T17:06:31.505Z,-8.82
2023-02-24T17:08:34.191Z,-8.80
2023-02-24T17:10:39.342Z,-8.83
2023-02-24T17:12:42.247Z,-8.82
2023-02-24T17:14:44.786Z,-8.81
2023-02-24T17:16:47.924Z,-8.86
2023-02-24T17:18:50.538Z,-8.87
2023-02-24T17:20:54.151Z,-8.89
2023-02-24T17:22:56.793Z,-8.87
2023-02-24T17:25:00.200Z,-8.83
2023-02-24T17:27:04.566Z,-8.83
2023-02-24T17:29:07.569Z,-8.81
2023-02-24T17:31:10.285Z,-8.75
2023-02-24T17:33:14.540Z,-8.74
2023-02-24T17:35:17.258Z,-8.74
2023-02-24T17:37:20.751Z,-8.68
2023-02-24T17:39:23.284Z,-8.63
2023-02-24T17:41:26.172Z,-8.57
2023-02-24T17:43:29.714Z,-8.55
2023-02-24T17:45:32.302Z,-8.51
2023-02-24T17:47:35.334Z,-8.47
2023-02-24T17:49:37.943Z,-8.43
2023-02-24T17:51:40.729Z,-8.44
2023-02-24T17:53:43.636Z,-8.41
2023-02-24T17:56:01.481Z,-8.37
2023-02-24T17:58:05.052Z,-8.33
2023-02-24T18:00:13.314Z,-8.34
2023-02-24T18:02:18.152Z,-8.32
2023-02-24T18:04:20.752Z,-8.29
2023-02-24T18:06:24.720Z,-8.39
2023-02-24T18:08:28.116Z,-8.25
2023-02-24T18:10:30.787Z,-8.23
2023-02-24T18:12:33.315Z,-8.20
2023-02-24T18:14:35.819Z,-8.19
2023-02-24T18:16:39.953Z,-8.18
2023-02-24T18:18:42.579Z,-8.16
2023-02-24T18:20:45.532Z,-8.15
2023-02-24T18:22:48.183Z,-8.14
2023-02-24T18:24:51.101Z,-8.13
2023-02-24T18:26:53.758Z,-8.12
2023-02-24T18:28:56.736Z,-8.11
2023-02-24T18:31:00.789Z,-8.10
2023-02-24T18:33:03.596Z,-8.08
2023-02-24T18:35:06.665Z,-8.09
2023-02-24T18:37:09.168Z,-8.09
2023-02-24T18:39:14.720Z,-8.09
2023-02-24T18:41:20.597Z,-8.11
2023-02-24T18:43:23.294Z,-8.09
2023-02-24T18:45:25.895Z,-8.09
2023-02-24T18:47:28.468Z,-8.07
2023-02-24T18:49:30.985Z,-8.04
2023-02-24T18:51:33.961Z,-8.01
2023-02-24T18:53:37.143Z,-8.01
2023-02-24T18:55:39.661Z,-7.99
2023-02-24T18:57:42.261Z,-7.96
2023-02-24T18:59:44.793Z,-7.96
2023-02-24T19:01:47.355Z,-7.96
2023-02-24T19:03:51.214Z,-7.95
2023-02-24T19:05:53.721Z,-7.95
2023-02-24T19:07:56.396Z,-7.92
2023-02-24T19:09:58.847Z,-7.91
2023-02-24T19:12:02.190Z,-7.96
2023-02-24T19:14:05.283Z,-7.91
2023-02-24T19:16:08.309Z,-7.87
2023-02-24T19:18:10.990Z,-7.83
2023-02-24T19:20:16.657Z,-7.87
2023-02-24T19:22:19.246Z,-7.86
2023-02-24T19:24:22.302Z,-7.84
2023-02-24T19:26:27.246Z,-7.82
2023-02-24T19:28:29.869Z,-7.79
2023-02-24T19:30:32.517Z,-7.80
2023-02-24T19:32:35.131Z,-7.81
2023-02-24T19:34:38.072Z,-7.78
2023-02-24T19:36:41.350Z,-7.79
2023-02-24T19:38:43.885Z,-7.82
2023-02-24T19:40:46.457Z,-7.81
2023-02-24T19:42:51.850Z,-7.79
2023-02-24T19:44:54.368Z,-7.79
2023-02-24T19:46:56.836Z,-7.79
2023-02-24T19:49:00.060Z,-7.79
2023-02-24T19:51:09.163Z,-7.76
2023-02-24T19:53:12.064Z,-7.74
2023-02-24T19:55:14.804Z,-7.73
2023-02-24T19:57:17.418Z,-7.71
2023-02-24T19:59:19.945Z,-7.67
2023-02-24T20:01:23.547Z,-7.69
2023-02-24T20:03:28.439Z,-7.66
2023-02-24T20:05:30.963Z,-7.67
2023-02-24T20:07:34.958Z,-7.69
2023-02-24T20:09:37.682Z,-7.67
2023-02-24T20:11:40.591Z,-7.65
2023-02-24T20:13:43.513Z,-7.68
2023-02-24T20:15:46.333Z,-7.62
2023-02-24T20:17:49.809Z,-7.61
2023-02-24T20:19:52.561Z,-7.61
2023-02-24T20:21:55.146Z,-7.55
2023-02-24T20:24:01.806Z,-7.58
2023-02-24T20:26:05.629Z,-7.56
2023-02-24T20:28:08.155Z,-7.55
2023-02-24T20:30:11.445Z,-7.54
2023-02-24T20:32:14.434Z,-7.53
2023-02-24T20:34:17.849Z,-7.53
2023-02-24T20:36:26.152Z,-7.55
2023-02-24T20:38:29.277Z,-7.55
2023-02-24T20:40:34.098Z,-7.53
2023-02-24T20:42:36.610Z,-7.52
2023-02-24T20:44:39.468Z,-7.54
2023-02-24T20:46:42.617Z,-7.54
2023-02-24T20:48:45.240Z,-7.53
2023-02-24T20:50:47.759Z,-7.52
2023-02-24T20:52:50.392Z,-7.53
2023-02-24T20:54:52.873Z,-7.52
2023-02-24T20:56:55.971Z,-7.54
2023-02-24T20:59:08.543Z,-7.53
2023-02-24T21:01:12.150Z,-7.51
2023-02-24T21:03:14.821Z,-7.50
2023-02-24T21:05:23.903Z,-7.50
2023-02-24T21:07:26.687Z,-7.50
2023-02-24T21:09:29.364Z,-7.50
2023-02-24T21:11:32.284Z,-7.50
2023-02-24T21:13:36.411Z,-7.49
2023-02-24T21:15:39.474Z,-7.49
2023-02-24T21:17:42.115Z,-7.48
2023-02-24T21:19:44.591Z,-7.46
2023-02-24T21:21:47.448Z,-7.44
2023-02-24T21:23:51.526Z,-7.46
2023-02-24T21:25:54.561Z,-7.46
2023-02-24T21:27:57.088Z,-7.45
2023-02-24T21:29:59.644Z,-7.41
2023-02-24T21:32:03.421Z,-7.44
2023-02-24T21:34:06.176Z,-7.45
2023-02-24T21:36:13.601Z,-7.44
2023-02-24T21:38:16.071Z,-7.45
2023-02-24T21:40:18.823Z,-7.42
2023-02-24T21:42:22.548Z,-7.41
2023-02-24T21:44:25.800Z,-7.41
2023-02-24T21:46:28.859Z,-7.40
2023-02-24T21:48:32.213Z,-7.41
2023-02-24T21:50:34.750Z,-7.39
2023-02-24T21:52:37.269Z,-7.40
2023-02-24T21:54:40.239Z,-7.38
2023-02-24T21:56:42.784Z,-7.40
2023-02-24T21:58:48.443Z,-7.37
2023-02-24T22:00:51.122Z,-7.37
2023-02-24T22:02:55.623Z,-7.37
2023-02-24T22:04:58.178Z,-7.37
2023-02-24T22:07:00.662Z,-7.38
2023-02-24T22:09:05.727Z,-7.35
2023-02-24T22:11:08.205Z,-7.35
2023-02-24T22:13:10.710Z,-7.33
2023-02-24T22:15:14.252Z,-7.31
2023-02-24T22:17:16.717Z,-7.32
2023-02-24T22:19:22.338Z,-7.35
2023-02-24T22:21:28.566Z,-7.35
2023-02-24T22:23:31.027Z,-7.30
2023-02-24T22:25:35.675Z,-7.32
2023-02-24T22:27:38.939Z,-7.33
2023-02-24T22:29:43.114Z,-7.31
2023-02-24T22:31:49.593Z,-7.28
2023-02-24T22:33:52.797Z,-7.28
2023-02-24T22:35:55.854Z,-7.29
2023-02-24T22:37:58.344Z,-7.28
2023-02-24T22:40:00.953Z,-7.30
2023-02-24T22:42:04.600Z,-7.30
2023-02-24T22:44:07.276Z,-7.29
2023-02-24T22:46:16.083Z,-7.28
2023-02-24T22:48:18.724Z,-7.25
2023-02-24T22:50:21.296Z,-7.27
2023-02-24T22:52:23.858Z,-7.28
2023-02-24T22:54:26.405Z,-7.28
2023-02-24T22:56:29.962Z,-7.29
2023-02-24T22:58:32.681Z,-7.27
2023-02-24T23:00:35.183Z,-7.26
2023-02-24T23:02:37.739Z,-7.24
2023-02-24T23:04:40.227Z,-7.25
2023-02-24T23:06:43.610Z,-7.19
2023-02-24T23:08:48.096Z,-7.21
2023-02-24T23:10:52.287Z,-7.20
2023-02-24T23:12:55.598Z,-7.23
2023-02-24T23:14:58.832Z,-7.23
2023-02-24T23:17:01.350Z,-7.23
2023-02-24T23:19:13.134Z,-7.22
2023-02-24T23:21:18.542Z,-7.23
2023-02-24T23:23:21.126Z,-7.24
2023-02-24T23:25:23.727Z,-7.24
2023-02-24T23:27:26.994Z,-7.25
2023-02-24T23:29:30.905Z,-7.26
2023-02-24T23:31:33.855Z,-7.25
2023-02-24T23:33:36.471Z,-7.26
2023-02-24T23:35:40.793Z,-7.26
2023-02-24T23:37:43.411Z,-7.28
2023-02-24T23:39:45.931Z,-7.34
2023-02-24T23:41:48.530Z,-7.33
2023-02-24T23:43:51.273Z,-7.33
2023-02-24T23:45:53.918Z,-7.34
2023-02-24T23:47:57.642Z,-7.35
2023-02-24T23:50:00.973Z,-7.38
2023-02-24T23:52:03.520Z,-7.37
2023-02-24T23:54:06.071Z,-7.39
2023-02-24T23:56:11.325Z,-7.39
2023-02-24T23:58:13.785Z,-7.35
